Time;durP1;ratioP1;P1;durP2;ratioP2;P2;SDS_P1;SDS_P2;PMS_P1;PMS_P2;Temp;Humidity;BMP_temperature;BMP_pressure;BME280_temperature;BME280_humidity;BME280_pressure;Samples;Min_cycle;Max_cycle;Signal;HPM_P1;HPM_P2
2021/03/07 00:05:49;;;;;;;16.15;8.45;;;;;;;3.40;56.20;101334.90;2098767;82;27726;-63
2021/03/07 00:08:51;;;;;;;25.68;10.23;;;;;;;3.36;56.19;101335.79;2111177;82;28834;-63
2021/03/07 00:11:53;;;;;;;21.70;10.20;;;;;;;3.35;56.15;101328.73;2165342;80;32338;-63
2021/03/07 00:14:55;;;;;;;19.10;9.85;;;;;;;3.35;56.12;101328.73;2217719;79;33175;-64
2021/03/07 00:17:57;;;;;;;18.65;8.78;;;;;;;3.36;56.17;101330.95;2218393;80;29222;-63
2021/03/07 00:21:00;;;;;;;20.00;10.03;;;;;;;3.32;56.17;101327.41;2218310;79;27669;-63
2021/03/07 00:24:03;;;;;;;19.60;9.38;;;;;;;3.32;56.17;101324.33;2187446;79;29339;-63
2021/03/07 00:27:05;;;;;;;15.30;9.30;;;;;;;3.32;56.18;101323.01;2133483;83;31200;-63
2021/03/07 00:30:11;;;;;;;18.30;9.28;;;;;;;3.32;56.18;101320.36;2133288;83;35446;-63
2021/03/07 00:33:13;;;;;;;18.75;8.90;;;;;;;3.32;56.17;101309.77;2138266;82;28800;-63
2021/03/07 00:36:15;;;;;;;18.85;9.20;;;;;;;3.30;56.21;101308.88;2149524;82;28000;-63
2021/03/07 00:39:18;;;;;;;17.90;8.55;;;;;;;3.27;56.17;101306.70;2149337;82;28830;-63
2021/03/07 00:42:19;;;;;;;21.10;9.65;;;;;;;3.24;56.26;101301.41;2148335;82;31154;-63
2021/03/07 00:45:22;;;;;;;18.12;8.93;;;;;;;3.22;56.26;101297.45;2149406;82;34050;-63
2021/03/07 00:48:24;;;;;;;17.10;9.10;;;;;;;3.18;56.38;101295.23;2149467;82;29035;-63
2021/03/07 00:51:26;;;;;;;17.73;9.00;;;;;;;3.17;56.40;101283.34;2133287;82;27650;-64
2021/03/07 00:54:28;;;;;;;15.72;8.38;;;;;;;3.17;56.54;101281.55;2149418;82;29793;-63
2021/03/07 00:57:30;;;;;;;14.40;8.93;;;;;;;3.16;56.57;101273.63;2149338;82;31144;-63
2021/03/07 01:00:32;;;;;;;16.55;9.23;;;;;;;3.16;56.68;101273.17;2148757;82;34094;-64
2021/03/07 01:03:34;;;;;;;18.48;9.90;;;;;;;3.16;56.73;101264.36;2149699;82;28832;-63
2021/03/07 01:06:36;;;;;;;16.10;8.75;;;;;;;3.17;56.79;101266.98;2154082;81;27688;-63
2021/03/07 01:09:38;;;;;;;15.70;8.20;;;;;;;3.18;56.85;101255.52;2118158;84;28846;-63
2021/03/07 01:12:41;;;;;;;16.75;9.75;;;;;;;3.18;56.96;101251.55;2146113;81;32533;-63
2021/03/07 01:15:44;;;;;;;24.43;9.53;;;;;;;3.20;57.00;101246.27;2172578;81;33118;-64
2021/03/07 01:18:46;;;;;;;16.48;8.68;;;;;;;3.22;57.02;101244.92;2158426;81;29150;-63
2021/03/07 01:21:49;;;;;;;19.85;10.00;;;;;;;3.21;57.08;101237.86;2153734;82;27637;-63
2021/03/07 01:24:51;;;;;;;16.80;8.68;;;;;;;3.23;57.17;101243.58;2152476;82;31090;-63
2021/03/07 01:27:53;;;;;;;14.90;8.75;;;;;;;3.24;57.24;101233.88;2184144;81;33536;-63
2021/03/07 01:30:56;;;;;;;15.08;9.18;;;;;;;3.25;57.20;101229.02;2189827;80;33153;-63
2021/03/07 01:33:58;;;;;;;20.62;9.65;;;;;;;3.26;57.27;101224.17;2181078;81;29171;-63
2021/03/07 01:37:00;;;;;;;14.58;9.13;;;;;;;3.26;57.30;101221.52;2179957;81;27665;-63
2021/03/07 01:40:07;;;;;;;14.60;9.58;;;;;;;3.26;57.41;101214.90;2140686;83;29093;-63
2021/03/07 01:43:10;;;;;;;19.35;9.83;;;;;;;3.27;57.46;101214.88;2140999;83;32206;-63
2021/03/07 01:46:12;;;;;;;15.03;9.03;;;;;;;3.26;57.55;101207.82;2164419;80;33344;-63
2021/03/07 01:49:14;;;;;;;15.32;8.23;;;;;;;3.26;57.65;101197.23;2184064;81;29117;-63
2021/03/07 01:52:17;;;;;;;15.03;8.90;;;;;;;3.26;57.65;101199.01;2203580;80;27648;-64
2021/03/07 01:55:23;;;;;;;16.60;8.78;;;;;;;3.25;57.71;101195.92;2168901;81;28726;-62
2021/03/07 01:58:28;;;;;;;14.00;9.10;;;;;;;3.25;57.76;101187.98;2120153;81;31134;-62
2021/03/07 02:01:30;;;;;;;14.75;8.23;;;;;;;3.24;57.82;101191.05;2181240;81;33108;-63
2021/03/07 02:04:32;;;;;;;14.05;8.13;;;;;;;3.26;57.89;101180.47;2181434;81;28416;-63
2021/03/07 02:07:35;;;;;;;11.83;6.90;;;;;;;3.26;57.88;101171.20;2147804;80;27703;-63
2021/03/07 02:10:41;;;;;;;13.22;7.42;;;;;;;3.27;57.89;101171.19;2151757;80;28811;-63
2021/03/07 02:13:45;;;;;;;13.18;7.72;;;;;;;3.27;57.97;101172.51;2154683;81;30233;-63
2021/03/07 02:16:47;;;;;;;10.90;6.60;;;;;;;3.29;57.97;101172.06;2119996;80;33104;-63
2021/03/07 02:19:52;;;;;;;11.65;6.62;;;;;;;3.31;58.10;101161.48;2153080;81;29016;-64
2021/03/07 02:23:08;;;;;;;13.53;6.93;;;;;;;3.31;58.09;101158.38;2128045;81;27652;-63
2021/03/07 02:26:10;;;;;;;14.87;7.28;;;;;;;3.34;58.12;101158.78;2155361;82;28885;-63
2021/03/07 02:29:13;;;;;;;10.88;6.55;;;;;;;3.33;58.11;101153.95;2155232;82;31188;-64
2021/03/07 02:32:22;;;;;;;11.90;6.35;;;;;;;3.37;58.12;101152.61;2123220;81;33137;-62
2021/03/07 02:35:26;;;;;;;9.60;6.92;;;;;;;3.36;58.17;101150.39;2115969;84;29226;-64
2021/03/07 02:38:35;;;;;;;11.00;6.78;;;;;;;3.38;58.31;101143.31;2116193;84;27726;-63
2021/03/07 02:41:37;;;;;;;11.15;6.92;;;;;;;3.38;58.28;101139.34;2116798;84;28834;-64
2021/03/07 02:44:47;;;;;;;9.53;6.28;;;;;;;3.38;58.31;101126.11;2116968;84;31168;-63
2021/03/07 02:47:52;;;;;;;11.10;6.85;;;;;;;3.38;58.31;101126.56;2102358;82;33168;-63
2021/03/07 02:50:57;;;;;;;12.10;6.78;;;;;;;3.38;58.30;101118.16;2154877;82;29242;-63
2021/03/07 02:54:03;;;;;;;10.45;6.47;;;;;;;3.39;58.31;101123.89;2154839;82;27693;-64
2021/03/07 02:57:06;;;;;;;9.70;5.80;;;;;;;3.40;58.44;101111.52;2155591;82;28824;-63
2021/03/07 03:00:10;;;;;;;9.58;7.20;;;;;;;3.40;58.44;101111.52;2144301;80;31151;-63
2021/03/07 03:03:12;;;;;;;14.15;7.35;;;;;;;3.40;58.48;101108.44;2154476;82;33961;-63
2021/03/07 03:06:16;;;;;;;10.23;7.47;;;;;;;3.42;58.46;101101.79;2152074;81;29166;-63
2021/03/07 03:09:20;;;;;;;11.80;7.67;;;;;;;3.44;58.45;101102.66;2117301;84;27676;-63
2021/03/07 03:12:24;;;;;;;14.55;9.88;;;;;;;3.43;58.55;101099.58;2116525;84;28758;-63
2021/03/07 03:15:26;;;;;;;13.85;9.93;;;;;;;3.42;58.51;101098.72;2124500;80;33409;-63
2021/03/07 03:18:31;;;;;;;14.90;9.33;;;;;;;3.42;58.59;101100.04;2203640;80;33138;-63
2021/03/07 03:21:33;;;;;;;17.20;11.53;;;;;;;3.42;58.64;101092.09;2183540;81;29171;-63
2021/03/07 03:24:35;;;;;;;16.77;11.68;;;;;;;3.42;58.65;101096.49;2203315;80;27764;-63
2021/03/07 03:27:38;;;;;;;18.90;12.55;;;;;;;3.42;58.70;101081.92;2160587;80;27993;-63
2021/03/07 03:30:40;;;;;;;21.77;13.35;;;;;;;3.42;58.67;101080.17;2180961;81;31201;-63
2021/03/07 03:33:42;;;;;;;18.40;12.70;;;;;;;3.43;58.61;101079.28;2154748;81;33088;-63
2021/03/07 03:36:44;;;;;;;21.07;14.10;;;;;;;3.44;58.73;101080.15;2180636;81;28998;-63
2021/03/07 03:39:47;;;;;;;24.02;15.38;;;;;;;3.45;58.73;101066.91;2181015;81;27739;-63
2021/03/07 03:42:53;;;;;;;24.23;16.75;;;;;;;3.46;58.82;101067.34;2185613;80;28821;-63
2021/03/07 03:46:00;;;;;;;24.65;17.20;;;;;;;3.46;58.78;101066.03;2125356;83;31710;-63
2021/03/07 03:49:09;;;;;;;25.80;17.32;;;;;;;3.47;58.80;101065.14;2117387;82;33905;-63
2021/03/07 03:52:11;;;;;;;22.87;16.05;;;;;;;3.48;58.78;101058.05;2180768;81;31478;-63
2021/03/07 03:55:18;;;;;;;24.67;15.00;;;;;;;3.49;58.82;101053.19;2141679;83;27679;-63
2021/03/07 03:58:23;;;;;;;18.95;14.07;;;;;;;3.48;58.83;101061.56;2179932;80;29755;-64
2021/03/07 04:01:25;;;;;;;20.48;14.05;;;;;;;3.46;58.90;101059.41;2141776;82;31147;-63
2021/03/07 04:04:28;;;;;;;17.48;11.97;;;;;;;3.46;58.89;101055.43;2159060;80;33110;-63
2021/03/07 04:07:31;;;;;;;18.23;12.63;;;;;;;3.48;58.87;101052.75;2112936;82;29176;-63
2021/03/07 04:10:33;;;;;;;17.55;12.30;;;;;;;3.47;58.89;101055.86;2141603;83;27577;-64
2021/03/07 04:13:36;;;;;;;13.60;10.40;;;;;;;3.47;58.91;101049.24;2108884;83;29036;-63
2021/03/07 04:16:38;;;;;;;13.65;9.68;;;;;;;3.47;58.91;101044.38;2184639;80;31143;-64
2021/03/07 04:19:40;;;;;;;14.47;9.80;;;;;;;3.46;58.90;101038.21;2203539;80;34079;-64
2021/03/07 04:22:43;;;;;;;12.10;9.13;;;;;;;3.47;58.88;101042.62;2203520;80;29331;-64
2021/03/07 04:25:45;;;;;;;16.27;10.20;;;;;;;3.47;58.88;101037.75;2149653;80;27811;-63
2021/03/07 04:28:48;;;;;;;13.30;9.33;;;;;;;3.45;58.91;101038.20;2140156;83;28821;-63
2021/03/07 04:31:50;;;;;;;11.08;7.42;;;;;;;3.45;58.91;101028.94;2180786;81;32175;-64
2021/03/07 04:34:52;;;;;;;11.70;7.40;;;;;;;3.45;58.89;101024.53;2141907;83;33137;-63
2021/03/07 04:38:01;;;;;;;11.45;7.42;;;;;;;3.44;58.90;101025.42;2181138;81;29236;-63
2021/03/07 04:41:03;;;;;;;9.58;7.40;;;;;;;3.45;58.87;101026.28;2147604;80;27694;-63
2021/03/07 04:44:07;;;;;;;12.03;6.85;;;;;;;3.45;58.89;101028.50;2103744;84;28914;-64
2021/03/07 04:47:09;;;;;;;9.58;6.60;;;;;;;3.45;58.90;101024.53;2141732;83;32051;-63
2021/03/07 04:50:15;;;;;;;8.15;5.95;;;;;;;3.46;58.85;101026.30;2130730;83;34503;-63
2021/03/07 04:53:20;;;;;;;8.88;6.70;;;;;;;3.45;58.88;101019.23;2180768;81;29169;-64
2021/03/07 04:56:22;;;;;;;6.12;4.35;;;;;;;3.48;58.89;101021.83;2155090;82;27899;-63
2021/03/07 04:59:25;;;;;;;12.58;5.95;;;;;;;3.48;58.91;101023.16;2140650;83;28827;-64
2021/03/07 05:02:27;;;;;;;10.35;6.20;;;;;;;3.49;58.96;101013.00;2132759;83;32120;-64
2021/03/07 05:05:29;;;;;;;8.43;6.37;;;;;;;3.49;58.85;101014.78;2180958;81;32906;-63
2021/03/07 05:08:31;;;;;;;9.60;6.67;;;;;;;3.49;58.83;101017.43;2117335;83;30120;-63
2021/03/07 05:11:35;;;;;;;8.58;6.30;;;;;;;3.52;58.92;101015.19;2181051;81;27646;-64
2021/03/07 05:14:37;;;;;;;9.38;6.20;;;;;;;3.52;58.92;101009.89;2141589;83;29103;-64
2021/03/07 05:17:39;;;;;;;11.12;6.62;;;;;;;3.52;58.81;101012.11;2171943;80;31146;-64
2021/03/07 05:20:42;;;;;;;10.78;6.67;;;;;;;3.53;58.81;101009.00;2103223;84;33618;-64
2021/03/07 05:23:44;;;;;;;10.03;6.65;;;;;;;3.53;58.81;101001.95;2143166;81;29237;-64
2021/03/07 05:26:46;;;;;;;11.45;7.60;;;;;;;3.56;58.75;100996.59;2111640;82;27719;-64
2021/03/07 05:29:48;;;;;;;9.65;7.12;;;;;;;3.57;58.65;100994.38;2141183;83;28830;-64
2021/03/07 05:32:52;;;;;;;14.00;8.15;;;;;;;3.58;58.67;100986.86;2141153;83;30965;-64
2021/03/07 05:35:54;;;;;;;9.08;7.15;;;;;;;3.60;58.54;100996.14;2103596;84;33313;-64
2021/03/07 05:38:56;;;;;;;11.65;7.30;;;;;;;3.60;58.64;100989.05;2172076;81;29167;-63
2021/03/07 05:41:58;;;;;;;12.10;7.47;;;;;;;3.60;58.65;100977.14;2141515;83;27728;-64
2021/03/07 05:45:00;;;;;;;10.32;7.80;;;;;;;3.62;58.61;100977.14;2168236;81;28769;-63
2021/03/07 05:48:03;;;;;;;11.38;7.22;;;;;;;3.62;58.66;100973.16;2103448;84;31184;-63
2021/03/07 05:51:05;;;;;;;9.40;6.83;;;;;;;3.62;58.57;100969.19;2140664;83;33276;-64
2021/03/07 05:54:08;;;;;;;9.43;7.00;;;;;;;3.63;58.63;100964.33;2125272;82;29337;-64
2021/03/07 05:57:10;;;;;;;10.60;6.75;;;;;;;3.64;58.56;100963.44;2161291;80;27709;-63
2021/03/07 06:00:14;;;;;;;10.65;7.55;;;;;;;3.65;58.53;100959.43;2203462;80;31157;-64
2021/03/07 06:03:20;;;;;;;10.23;7.78;;;;;;;3.67;58.54;100958.08;2170521;80;31150;-63
2021/03/07 06:06:28;;;;;;;10.82;6.17;;;;;;;3.68;58.49;100965.13;2134824;82;33043;-63
2021/03/07 06:09:30;;;;;;;9.50;6.37;;;;;;;3.71;58.55;100966.43;2131225;81;29216;-64
2021/03/07 06:12:32;;;;;;;10.40;6.90;;;;;;;3.73;58.47;100967.73;2172227;81;27671;-64
2021/03/07 06:15:34;;;;;;;9.05;5.60;;;;;;;3.76;58.45;100973.00;2149335;82;28835;-64
2021/03/07 06:18:46;;;;;;;10.38;6.70;;;;;;;3.77;58.44;100969.45;2149317;82;31594;-63
2021/03/07 06:21:48;;;;;;;11.30;7.03;;;;;;;3.79;58.42;100963.70;2120748;82;33136;-73
2021/03/07 06:24:50;;;;;;;11.78;7.62;;;;;;;3.83;58.42;100969.83;2111175;83;29398;-73
2021/03/07 06:27:53;;;;;;;11.75;7.78;;;;;;;3.85;58.56;100970.70;2142388;82;28095;-63
2021/03/07 06:30:56;;;;;;;12.00;8.23;;;;;;;3.88;58.56;100968.92;2152319;81;28833;-64
2021/03/07 06:33:59;;;;;;;13.72;8.75;;;;;;;3.90;58.56;100961.80;2149325;82;31213;-64
2021/03/07 06:37:04;;;;;;;12.58;8.23;;;;;;;3.91;58.51;100960.05;2149155;82;35449;-63
2021/03/07 06:40:10;;;;;;;;;;;;;;;3.93;58.55;100955.14;2115133;82;29357;-63
2021/03/07 06:43:24;;;;;;;17.10;9.98;;;;;;;3.96;58.56;100960.88;2113642;83;27643;-63
2021/03/07 06:46:33;;;;;;;10.88;7.00;;;;;;;3.96;58.63;100958.23;2168933;81;28885;-63
2021/03/07 06:49:35;;;;;;;9.08;5.97;;;;;;;3.97;58.56;100952.46;2120256;82;32123;-63
2021/03/07 06:52:56;;;;;;;10.43;6.17;;;;;;;3.99;58.47;100953.33;2110983;84;35466;-63
2021/03/07 06:55:58;;;;;;;10.25;6.00;;;;;;;4.01;58.53;100952.86;2122701;82;31498;-63
2021/03/07 06:59:17;;;;;;;10.40;6.95;;;;;;;4.05;58.63;100947.96;2149492;82;28138;-63
2021/03/07 07:02:19;;;;;;;10.95;7.25;;;;;;;4.10;58.54;100946.11;2150150;82;29198;-63
2021/03/07 07:05:46;;;;;;;9.23;6.42;;;;;;;4.15;58.59;100940.31;2151674;81;31363;-63
2021/03/07 07:08:49;;;;;;;11.78;6.85;;;;;;;4.21;58.50;100940.67;2141046;82;33118;-64
2021/03/07 07:11:54;;;;;;;9.08;6.05;;;;;;;4.27;58.43;100932.65;2138451;83;29239;-63
2021/03/07 07:15:11;;;;;;;8.30;6.20;;;;;;;4.33;58.47;100937.85;2115475;82;27653;-62
2021/03/07 07:18:14;;;;;;;8.63;5.78;;;;;;;4.40;58.44;100931.58;2180942;81;28765;-64
2021/03/07 07:21:18;;;;;;;7.90;6.05;;;;;;;4.48;58.27;100933.23;2105453;84;32557;-63
2021/03/07 07:24:20;;;;;;;5.63;5.03;;;;;;;4.51;58.32;100930.54;2171018;80;33176;-63
2021/03/07 07:27:22;;;;;;;11.63;6.80;;;;;;;4.52;58.05;100925.23;2141623;83;29072;-64
2021/03/07 07:30:25;;;;;;;9.15;6.78;;;;;;;4.52;57.93;100919.92;2180562;81;27770;-63
2021/03/07 07:33:39;;;;;;;14.68;9.60;;;;;;;4.56;58.16;100922.07;2127849;83;29239;-63
2021/03/07 07:36:48;;;;;;;10.43;7.60;;;;;;;4.61;58.10;100914.93;2192422;80;31151;-64
2021/03/07 07:39:53;;;;;;;16.87;10.40;;;;;;;4.65;58.02;100909.11;2202841;80;33966;-63
2021/03/07 07:42:59;;;;;;;13.98;7.90;;;;;;;4.68;57.84;100911.27;2198110;80;29154;-62
2021/03/07 07:46:12;;;;;;;16.48;10.50;;;;;;;4.69;57.86;100903.73;2141585;83;27686;-63
2021/03/07 07:49:38;;;;;;;13.28;8.58;;;;;;;4.75;58.02;100904.55;2118102;82;28835;-64
2021/03/07 07:52:40;;;;;;;14.15;8.53;;;;;;;4.75;57.88;100896.12;2160430;80;32355;-63
2021/03/07 07:55:57;;;;;;;11.75;8.50;;;;;;;4.77;57.63;100893.45;2103357;84;33202;-63
2021/03/07 07:58:59;;;;;;;16.77;8.98;;;;;;;4.80;57.72;100891.63;2116466;83;29049;-63
2021/03/07 08:02:01;;;;;;;13.40;9.20;;;;;;;4.83;57.39;100893.34;2103891;83;27682;-63
2021/03/07 08:05:03;;;;;;;13.53;9.25;;;;;;;4.85;57.47;100891.11;2141592;83;28762;-62
2021/03/07 08:08:08;;;;;;;14.10;9.30;;;;;;;4.86;57.40;100895.95;2108513;82;31240;-62
2021/03/07 08:11:24;;;;;;;20.62;11.65;;;;;;;4.92;57.34;100887.89;2141559;83;33108;-63
2021/03/07 08:14:36;;;;;;;15.35;9.93;;;;;;;4.94;57.43;100880.78;2105499;81;29232;-63
2021/03/07 08:18:04;;;;;;;19.62;11.93;;;;;;;4.96;57.03;100876.77;2184640;80;27771;-63
2021/03/07 08:21:06;;;;;;;18.15;11.05;;;;;;;4.97;57.16;100875.86;2141404;83;28832;-63
2021/03/07 08:24:09;;;;;;;15.45;10.05;;;;;;;5.01;57.05;100869.14;2180621;81;31543;-62
2021/03/07 08:27:34;;;;;;;18.62;11.90;;;;;;;5.01;56.88;100870.47;2179555;81;33100;-62
2021/03/07 08:30:39;;;;;;;14.25;10.63;;;;;;;5.05;56.92;100868.63;2141483;83;29166;-63
2021/03/07 08:33:43;;;;;;;16.25;11.38;;;;;;;5.09;56.86;100864.16;2152031;81;27823;-63
2021/03/07 08:36:54;;;;;;;17.55;11.80;;;;;;;5.11;56.61;100867.67;2103619;84;28890;-63
2021/03/07 08:40:35;;;;;;;16.05;10.88;;;;;;;5.15;56.79;100860.05;2140717;83;31171;-64
2021/03/07 08:43:42;;;;;;;16.52;10.72;;;;;;;5.20;56.53;100862.64;2138692;81;33130;-61
2021/03/07 08:46:47;;;;;;;15.08;11.15;;;;;;;5.24;56.49;100849.27;2148972;81;30051;-62
2021/03/07 08:49:49;;;;;;;20.12;11.65;;;;;;;5.27;56.42;100846.99;2153483;82;37204;-62
2021/03/07 08:52:51;;;;;;;18.15;11.48;;;;;;;5.33;56.54;100841.58;2125995;82;28821;-63
2021/03/07 08:55:54;;;;;;;18.23;12.30;;;;;;;5.37;56.18;100839.30;2161967;81;31131;-63
2021/03/07 08:58:57;;;;;;;16.55;11.93;;;;;;;5.42;56.21;100837.87;2153191;82;34141;-63
2021/03/07 09:01:59;;;;;;;16.50;11.83;;;;;;;5.48;56.12;100839.05;2153106;82;29177;-62
2021/03/07 09:05:01;;;;;;;24.27;13.75;;;;;;;5.57;56.13;100837.56;2169057;81;27789;-65
2021/03/07 09:08:05;;;;;;;21.80;11.93;;;;;;;5.66;55.74;100831.62;2148714;81;28081;-64
2021/03/07 09:11:09;;;;;;;25.80;14.53;;;;;;;5.72;55.57;100833.69;2136737;82;31120;-64
2021/03/07 09:14:11;;;;;;;19.45;11.53;;;;;;;5.82;55.71;100830.39;2136357;82;33097;-60
2021/03/07 09:17:23;;;;;;;25.43;12.20;;;;;;;5.93;55.47;100828.39;2135156;82;29158;-62
2021/03/07 09:20:48;;;;;;;19.75;13.13;;;;;;;6.00;55.37;100826.94;2142861;82;27676;-61
2021/03/07 09:23:50;;;;;;;21.62;13.00;;;;;;;6.11;55.32;100822.72;2019240;87;28918;-63
2021/03/07 09:26:53;;;;;;;19.27;11.90;;;;;;;6.14;54.59;100822.66;1994620;87;31177;-62
2021/03/07 09:30:12;;;;;;;17.95;11.90;;;;;;;6.11;54.70;100826.27;2003399;88;34046;-63
2021/03/07 09:33:14;;;;;;;18.35;11.90;;;;;;;6.19;54.40;100828.75;2010153;88;30091;-62
2021/03/07 09:36:19;;;;;;;17.48;12.58;;;;;;;6.17;54.19;100819.45;2009828;88;27879;-62
2021/03/07 09:39:22;;;;;;;19.10;11.70;;;;;;;6.16;54.13;100804.41;2006216;87;28909;-63
2021/03/07 09:42:25;;;;;;;17.85;12.23;;;;;;;6.22;54.33;100800.72;2011823;87;31357;-64
2021/03/07 09:45:28;;;;;;;15.43;11.18;;;;;;;6.26;53.43;100804.20;2031385;87;33542;-64
2021/03/07 09:48:35;;;;;;;17.37;11.68;;;;;;;6.17;53.09;100800.84;2004498;87;29273;-64
2021/03/07 09:51:40;;;;;;;17.25;11.85;;;;;;;6.04;52.27;100810.88;2047976;86;28286;-64
2021/03/07 09:54:56;;;;;;;17.10;11.18;;;;;;;5.97;52.45;100806.59;2045149;86;29731;-63
2021/03/07 09:58:08;;;;;;;15.25;10.58;;;;;;;5.89;52.80;100809.42;2088398;83;31170;-64
2021/03/07 10:01:11;;;;;;;20.80;11.85;;;;;;;5.84;52.54;100805.97;2086029;84;33971;-61
2021/03/07 10:04:49;;;;;;;18.52;11.78;;;;;;;5.80;52.58;100800.77;2124691;83;29169;-61
2021/03/07 10:07:52;;;;;;;17.23;12.37;;;;;;;5.84;52.64;100806.45;2117118;81;28246;-61
2021/03/07 10:11:14;;;;;;;21.55;13.95;;;;;;;5.82;52.71;100801.14;2143317;83;28928;-61
2021/03/07 10:14:18;;;;;;;19.82;13.48;;;;;;;5.84;52.59;100804.64;2154177;81;33382;-60
2021/03/07 10:17:21;;;;;;;22.10;13.53;;;;;;;5.80;52.39;100798.97;2149784;81;34701;-61
2021/03/07 10:20:26;;;;;;;23.85;13.30;;;;;;;5.79;52.51;100799.91;2164617;80;30107;-62
2021/03/07 10:23:31;;;;;;;51.90;24.75;;;;;;;5.80;52.28;100802.09;2153600;82;27983;-64
2021/03/07 10:26:35;;;;;;;;;;;;;;;5.76;52.13;100790.19;2148142;82;29836;-62
2021/03/07 10:29:39;;;;;;;17.48;11.35;;;;;;;5.69;52.14;100791.25;2146705;82;32495;-64
2021/03/07 10:32:42;;;;;;;16.77;11.28;;;;;;;5.72;52.29;100792.95;2164813;82;35447;-64
2021/03/07 10:36:13;;;;;;;22.13;12.50;;;;;;;5.78;52.40;100787.05;2168639;81;29593;-66
2021/03/07 10:39:15;;;;;;;16.30;12.18;;;;;;;5.84;52.48;100783.84;2200946;80;27837;-67
2021/03/07 10:42:23;;;;;;;17.62;12.05;;;;;;;5.88;52.45;100778.85;2200791;80;28960;-64
2021/03/07 10:45:26;;;;;;;17.17;12.37;;;;;;;5.91;52.20;100778.35;2189804;80;31979;-62
2021/03/07 10:48:31;;;;;;;15.78;11.53;;;;;;;5.93;52.22;100772.98;2141321;83;33104;-66
2021/03/07 10:51:34;;;;;;;16.50;12.05;;;;;;;5.98;52.13;100761.80;2154215;82;29993;-62
2021/03/07 10:54:37;;;;;;;18.95;12.75;;;;;;;5.97;51.96;100774.67;2147812;81;27698;-68
2021/03/07 10:57:40;;;;;;;40.58;20.60;;;;;;;5.98;52.02;100771.55;2117354;83;28915;-61
2021/03/07 11:00:42;;;;;;;54.00;24.52;;;;;;;6.03;52.10;100783.00;2174022;81;31147;-63
2021/03/07 11:03:45;;;;;;;31.70;18.42;;;;;;;6.07;51.89;100762.94;2165604;80;33858;-62
2021/03/07 11:06:47;;;;;;;25.23;16.30;;;;;;;6.12;51.67;100758.86;2141132;83;29170;-60
2021/03/07 11:09:50;;;;;;;32.05;19.65;;;;;;;6.15;51.63;100758.76;2141537;81;27667;-63
2021/03/07 11:12:52;;;;;;;55.50;25.65;;;;;;;6.24;51.75;100757.66;2170618;80;28783;-62
2021/03/07 11:15:54;;;;;;;33.38;19.90;;;;;;;6.28;51.64;100753.17;2180315;81;31699;-62
2021/03/07 11:18:59;;;;;;;;;;;;;;;6.31;51.49;100753.06;2182235;81;33134;-67
2021/03/07 11:22:02;;;;;;;20.55;13.90;;;;;;;6.33;51.08;100752.58;2174457;80;30662;-65
2021/03/07 11:25:06;;;;;;;25.08;14.85;;;;;;;6.37;51.33;100750.27;2153979;82;27789;-64
2021/03/07 11:28:09;;;;;;;16.20;12.77;;;;;;;6.40;51.13;100739.55;2183540;81;28612;-62
2021/03/07 11:31:11;;;;;;;20.25;13.38;;;;;;;6.47;50.54;100735.80;2118625;84;33403;-60
2021/03/07 11:34:13;;;;;;;21.45;14.05;;;;;;;6.53;50.58;100730.33;2117840;84;33123;-64
2021/03/07 11:37:16;;;;;;;19.32;13.40;;;;;;;6.59;50.57;100725.77;2153504;81;29174;-61
2021/03/07 11:40:20;;;;;;;23.25;15.10;;;;;;;6.65;50.31;100730.47;2155789;81;27717;-63
2021/03/07 11:43:22;;;;;;;25.95;14.90;;;;;;;6.66;50.05;100720.68;2172920;81;28832;-64
2021/03/07 11:46:24;;;;;;;22.22;13.55;;;;;;;6.61;50.55;100719.95;2200450;80;33450;-63
2021/03/07 11:49:26;;;;;;;29.82;14.35;;;;;;;6.49;49.96;100711.35;2154805;82;33117;-66
2021/03/07 11:52:29;;;;;;;21.55;12.82;;;;;;;6.43;50.53;100714.20;2146241;82;29179;-64
2021/03/07 11:55:31;;;;;;;20.20;13.32;;;;;;;6.43;50.17;100707.54;2146109;82;27738;-65
2021/03/07 11:58:33;;;;;;;17.20;12.15;;;;;;;6.45;50.43;100705.72;2146344;82;29247;-64
2021/03/07 12:01:36;;;;;;;23.15;11.45;;;;;;;6.52;50.44;100697.11;2146467;82;31153;-65
2021/03/07 12:04:38;;;;;;;18.80;11.00;;;;;;;6.57;50.11;100697.84;2166670;82;33553;-65
2021/03/07 12:07:41;;;;;;;15.20;10.00;;;;;;;6.63;49.97;100695.03;2162297;81;29159;-68
2021/03/07 12:10:43;;;;;;;17.42;11.40;;;;;;;6.71;49.93;100689.94;2146541;82;27681;-62
2021/03/07 12:13:47;;;;;;;18.48;10.78;;;;;;;6.79;49.95;100685.29;2156315;82;28833;-67
2021/03/07 12:16:49;;;;;;;17.82;11.33;;;;;;;6.79;49.63;100687.95;2146127;82;31230;-69
2021/03/07 12:19:52;;;;;;;16.60;12.10;;;;;;;6.81;49.94;100676.33;2146068;82;33137;-68
2021/03/07 12:22:54;;;;;;;20.27;12.60;;;;;;;6.83;49.80;100677.64;2145958;82;29723;-62
2021/03/07 12:25:57;;;;;;;29.75;17.57;;;;;;;6.86;49.26;100664.23;2144158;82;28396;-64
2021/03/07 12:28:59;;;;;;;25.02;14.40;;;;;;;6.85;49.63;100673.14;2144274;83;28823;-65
2021/03/07 12:32:02;;;;;;;14.53;10.88;;;;;;;6.85;49.33;100670.48;2143840;82;31577;-68
2021/03/07 12:35:06;;;;;;;19.00;12.98;;;;;;;6.82;48.99;100663.91;2144228;83;33112;-61
2021/03/07 12:38:09;;;;;;;15.60;11.50;;;;;;;6.79;49.06;100662.66;2145999;82;29237;-62
2021/03/07 12:41:11;;;;;;;14.18;9.78;;;;;;;6.75;48.94;100658.32;2146426;82;27666;-67
2021/03/07 12:44:16;;;;;;;16.93;9.45;;;;;;;6.73;49.09;100653.49;2146250;82;29812;-65
2021/03/07 12:47:18;;;;;;;13.35;8.48;;;;;;;6.67;48.99;100655.44;2146248;82;32075;-66
2021/03/07 12:50:20;;;;;;;10.45;7.90;;;;;;;6.67;49.43;100647.89;2146975;81;35513;-67
2021/03/07 12:53:23;;;;;;;14.90;9.20;;;;;;;6.64;49.11;100646.20;2174057;80;29153;-61
2021/03/07 12:56:30;;;;;;;13.90;8.68;;;;;;;6.58;48.95;100645.49;2165281;81;27692;-64
2021/03/07 12:59:32;;;;;;;12.60;9.58;;;;;;;6.52;49.13;100645.21;2152549;80;28923;-62
2021/03/07 13:02:34;;;;;;;12.15;9.33;;;;;;;6.50;49.35;100641.71;2146221;81;31161;-70
2021/03/07 13:05:36;;;;;;;14.87;9.00;;;;;;;6.53;49.56;100633.65;2122388;81;33118;-60
2021/03/07 13:08:39;;;;;;;21.05;11.40;;;;;;;6.54;49.50;100628.27;2109288;82;29340;-71
2021/03/07 13:11:41;;;;;;;20.25;12.07;;;;;;;6.57;49.53;100624.64;2174508;81;28013;-69
2021/03/07 13:14:43;;;;;;;25.23;13.13;;;;;;;6.63;49.15;100623.15;2168816;80;29321;-64
2021/03/07 13:17:45;;;;;;;42.27;20.27;;;;;;;6.69;49.38;100629.64;2184701;81;32490;-65
2021/03/07 13:20:51;;;;;;;45.63;22.00;;;;;;;6.69;49.30;100624.76;2154423;81;34070;-68
2021/03/07 13:23:53;;;;;;;18.67;10.30;;;;;;;6.67;48.56;100619.49;2162394;82;29168;-62
2021/03/07 13:26:55;;;;;;;20.25;12.15;;;;;;;6.73;48.53;100619.77;2163400;81;27788;-70
2021/03/07 13:29:57;;;;;;;14.70;9.80;;;;;;;6.78;48.92;100605.88;2166566;82;29769;-70
2021/03/07 13:32:59;;;;;;;22.42;11.48;;;;;;;6.89;49.05;100614.86;2162665;81;32247;-62
2021/03/07 13:36:01;;;;;;;14.28;9.33;;;;;;;6.96;48.63;100598.23;2161572;81;34068;-71
2021/03/07 13:39:04;;;;;;;20.75;12.15;;;;;;;7.01;48.54;100598.98;2165638;81;29159;-69
2021/03/07 13:42:07;;;;;;;16.50;10.15;;;;;;;7.06;48.81;100594.84;2171831;81;27660;-67
2021/03/07 13:45:14;;;;;;;15.63;10.38;;;;;;;7.10;48.22;100597.83;2159848;81;28840;-68
2021/03/07 13:48:15;;;;;;;18.48;13.35;;;;;;;7.04;47.88;100591.34;2171698;81;31135;-68
2021/03/07 13:51:17;;;;;;;15.85;10.90;;;;;;;7.03;48.18;100597.14;2171656;81;34104;-70
2021/03/07 13:54:22;;;;;;;15.83;8.88;;;;;;;7.07;48.41;100597.91;2141596;81;29171;-67
2021/03/07 13:57:24;;;;;;;17.98;10.20;;;;;;;7.10;48.09;100581.84;2138530;81;27695;-70
2021/03/07 14:00:27;;;;;;;16.32;9.83;;;;;;;7.08;48.22;100578.34;2131594;82;28822;-65
2021/03/07 14:03:29;;;;;;;14.98;9.33;;;;;;;7.05;48.46;100574.44;2161508;82;31158;-65
2021/03/07 14:06:31;;;;;;;18.37;10.05;;;;;;;7.06;48.49;100574.86;2152481;82;33122;-67
2021/03/07 14:09:33;;;;;;;17.30;9.75;;;;;;;7.05;47.60;100565.12;2175580;81;29168;-74
2021/03/07 14:12:35;;;;;;;16.32;8.80;;;;;;;6.95;48.00;100567.22;2155643;81;27695;-64
2021/03/07 14:15:37;;;;;;;18.62;10.60;;;;;;;6.92;48.04;100568.64;2182737;80;29771;-69
2021/03/07 14:18:40;;;;;;;12.98;8.90;;;;;;;6.82;47.94;100572.89;2141898;83;31150;-65
2021/03/07 14:21:42;;;;;;;13.58;10.32;;;;;;;6.80;47.78;100563.22;2191631;80;32979;-71